Observation data for Levelland on 11/19/2019      Previous  Date       Current Mesonet Observations  Soil Data  Daily Summary Page  Observations in Plain Language
KLD1 190600Z 25000KT 04/M02 A2999 RMK A01 T00401022  RH  064%=      5-min Rain = 0
KLD1 190605Z 25000KT 04/M02 A2999 RMK A01 T00391021  RH  065%=      5-min Rain = 0
KLD1 190610Z 22000KT 05/M02 A2999 RMK A01 T00461019  RH  064%=      5-min Rain = 0
KLD1 190615Z 00000KT 05/M02 A2999 RMK A01 T00511017  RH  062%=      5-min Rain = 0
KLD1 190620Z 00000KT 05/M02 A2999 RMK A01 T00541015  RH  061%=      5-min Rain = 0
KLD1 190625Z 21000KT 05/M02 A2999 RMK A01 T00531017  RH  061%=      5-min Rain = 0
KLD1 190630Z 20000KT 05/M02 A2999 RMK A01 T00491018  RH  063%=      5-min Rain = 0
KLD1 190635Z 15000KT 05/M02 A2999 RMK A01 T00461017  RH  064%=      5-min Rain = 0
KLD1 190640Z 15000KT 05/M02 A2999 RMK A01 T00461015  RH  065%=      5-min Rain = 0
KLD1 190645Z 15000KT 05/M01 A2999 RMK A01 T00521013  RH  064%=      5-min Rain = 0
KLD1 190650Z 18000KT 05/M01 A30 RMK A01 T00531014  RH  063%=      5-min Rain = 0
KLD1 190655Z 19001KT 05/M01 A30 RMK A01 T00511014  RH  063%=      5-min Rain = 0
KLD1 190700Z 20002KT 05/M02 A2999 RMK A01 T00461015  RH  065%=      5-min Rain = 0
KLD1 190705Z 20002KT 05/M01 A2999 RMK A01 T00461014  RH  066%=      5-min Rain = 0
KLD1 190710Z 20002KT 04/M01 A2999 RMK A01 T00441014  RH  066%=      5-min Rain = 0
KLD1 190715Z 21002KT 04/M02 A30 RMK A01 T00411015  RH  068%=      5-min Rain = 0
KLD1 190720Z 20002KT 04/M02 A30 RMK A01 T00441015  RH  066%=      5-min Rain = 0
KLD1 190725Z 18003KT 04/M02 A30 RMK A01 T00431015  RH  066%=      5-min Rain = 0
KLD1 190730Z 17004KT 05/M01 A30 RMK A01 T00451014  RH  066%=      5-min Rain = 0
KLD1 190735Z 17004KT 04/M02 A30 RMK A01 T00441015  RH  066%=      5-min Rain = 0
KLD1 190740Z 17004KT 04/M02 A2999 RMK A01 T00411018  RH  066%=      5-min Rain = 0
KLD1 190745Z 18003KT 04/M02 A2999 RMK A01 T00381016  RH  068%=      5-min Rain = 0
KLD1 190750Z 18002KT 05/M01 A2999 RMK A01 T00451014  RH  066%=      5-min Rain = 0
KLD1 190755Z 19001KT 04/M02 A30 RMK A01 T00421018  RH  066%=      5-min Rain = 0
KLD1 190800Z 18002KT 04/M02 A30 RMK A01 T00411017  RH  067%=      5-min Rain = 0
KLD1 190805Z 17001KT 04/M02 A30 RMK A01 T00421017  RH  066%=      5-min Rain = 0
KLD1 190810Z 16001KT 04/M02 A30 RMK A01 T00401017  RH  066%=      5-min Rain = 0
KLD1 190815Z 16001KT 04/M02 A30 RMK A01 T00391019  RH  067%=      5-min Rain = 0
KLD1 190820Z 13001KT 04/M02 A30 RMK A01 T00361020  RH  067%=      5-min Rain = 0
KLD1 190825Z 12002KT 03/M02 A2999 RMK A01 T00321020  RH  069%=      5-min Rain = 0
KLD1 190830Z 11003KT 03/M02 A2999 RMK A01 T00321020  RH  069%=      5-min Rain = 0
KLD1 190835Z 12004KT 03/M02 A2999 RMK A01 T00331019  RH  069%=      5-min Rain = 0
KLD1 190840Z 11004KT 03/M02 A2999 RMK A01 T00321021  RH  068%=      5-min Rain = 0
KLD1 190845Z 11003KT 03/M02 A2999 RMK A01 T00301021  RH  069%=      5-min Rain = 0
KLD1 190850Z 25008KT 04/M02 A2999 RMK A01 T00351015  RH  071%=      5-min Rain = 0
KLD1 190855Z 22007KT 07/M00 A30 RMK A01 T00741003  RH  059%=      5-min Rain = 0
KLD1 190900Z 24008KT 07/M01 A30 RMK A01 T00731008  RH  057%=      5-min Rain = 0
KLD1 190905Z 25009KT 06/M01 A2999 RMK A01 T00631010  RH  060%=      5-min Rain = 0
KLD1 190910Z 25008KT 06/M01 A30 RMK A01 T00551012  RH  063%=      5-min Rain = 0
KLD1 190915Z 25008KT 05/M01 A30 RMK A01 T00531011  RH  064%=      5-min Rain = 0
KLD1 190920Z 24007KT 06/M01 A30 RMK A01 T00561011  RH  063%=      5-min Rain = 0
KLD1 190925Z 25009KT 06/M01 A30 RMK A01 T00581010  RH  062%=      5-min Rain = 0
KLD1 190930Z 26008KT 06/M01 A30 RMK A01 T00601011  RH  061%=      5-min Rain = 0
KLD1 190935Z 26008KT 05/M01 A30 RMK A01 T00541013  RH  062%=      5-min Rain = 0
KLD1 190940Z 26007KT 05/M02 A30 RMK A01 T00471015  RH  065%=      5-min Rain = 0
KLD1 190945Z 27005KT 04/M02 A2999 RMK A01 T00401019  RH  066%=      5-min Rain = 0
KLD1 190950Z 27005KT 03/M02 A2999 RMK A01 T00321019  RH  070%=      5-min Rain = 0
KLD1 190955Z 28006KT 04/M02 A2999 RMK A01 T00361017  RH  069%=      5-min Rain = 0
KLD1 191000Z 28005KT 03/M02 A2999 RMK A01 T00321017  RH  071%=      5-min Rain = 0
KLD1 191005Z 29005KT 03/M02 A2999 RMK A01 T00331016  RH  070%=      5-min Rain = 0
KLD1 191010Z 29005KT 03/M02 A2999 RMK A01 T00341016  RH  070%=      5-min Rain = 0
KLD1 191015Z 30004KT 03/M02 A2998 RMK A01 T00331015  RH  071%=      5-min Rain = 0
KLD1 191020Z 30004KT 03/M01 A2998 RMK A01 T00341014  RH  071%=      5-min Rain = 0
KLD1 191025Z 29003KT 03/M02 A2998 RMK A01 T00341016  RH  070%=      5-min Rain = 0
KLD1 191030Z 30003KT 03/M02 A2998 RMK A01 T00331015  RH  071%=      5-min Rain = 0
KLD1 191035Z 31004KT 04/M01 A2998 RMK A01 T00351014  RH  071%=      5-min Rain = 0
KLD1 191040Z 31003KT 04/M02 A2998 RMK A01 T00351015  RH  071%=      5-min Rain = 0
KLD1 191045Z 32003KT 03/M02 A2998 RMK A01 T00331015  RH  072%=      5-min Rain = 0
KLD1 191050Z 30003KT 03/M01 A2998 RMK A01 T00331014  RH  072%=      5-min Rain = 0
KLD1 191055Z 31002KT 04/M01 A2998 RMK A01 T00371011  RH  071%=      5-min Rain = 0
KLD1 191100Z 33002KT 04/M01 A2998 RMK A01 T00391011  RH  070%=      5-min Rain = 0
KLD1 191105Z 33002KT 04/M01 A2998 RMK A01 T00401011  RH  070%=      5-min Rain = 0
KLD1 191110Z 35002KT 04/M01 A2997 RMK A01 T00401012  RH  070%=      5-min Rain = 0
KLD1 191115Z 30002KT 04/M01 A2997 RMK A01 T00361014  RH  071%=      5-min Rain = 0
KLD1 191120Z 29003KT 03/M02 A2997 RMK A01 T00311016  RH  072%=      5-min Rain = 0
KLD1 191125Z 29003KT 03/M01 A2997 RMK A01 T00271014  RH  075%=      5-min Rain = 0
KLD1 191130Z 29002KT 03/M01 A2997 RMK A01 T00281014  RH  074%=      5-min Rain = 0
KLD1 191135Z 29003KT 03/M01 A2997 RMK A01 T00271014  RH  075%=      5-min Rain = 0
KLD1 191140Z 28003KT 03/M01 A2997 RMK A01 T00271014  RH  075%=      5-min Rain = 0
KLD1 191145Z 29002KT 03/M02 A2997 RMK A01 T00251015  RH  076%=      5-min Rain = 0
KLD1 191150Z 29003KT 03/M01 A2996 RMK A01 T00271014  RH  075%=      5-min Rain = 0
KLD1 191155Z 28004KT 02/M02 A2996 RMK A01 T00211018  RH  076%=      5-min Rain = 0
KLD1 191200Z 28006KT 02/M02 A2997 RMK A01 T00161018  RH  079%=      5-min Rain = 0
KLD1 191205Z 28006KT 02/M02 A2997 RMK A01 T00171016  RH  080%=      5-min Rain = 0
KLD1 191210Z 28005KT 02/M02 A2996 RMK A01 T00161017  RH  080%=      5-min Rain = 0
KLD1 191215Z 28005KT 01/M02 A2997 RMK A01 T00131019  RH  080%=      5-min Rain = 0
KLD1 191220Z 29005KT 01/M02 A2997 RMK A01 T00101020  RH  081%=      5-min Rain = 0
KLD1 191225Z 31004KT 01/M02 A2997 RMK A01 T00101019  RH  082%=      5-min Rain = 0
KLD1 191230Z 31004KT 01/M02 A2997 RMK A01 T00111019  RH  081%=      5-min Rain = 0
KLD1 191235Z 32005KT 02/M01 A2997 RMK A01 T00231013  RH  078%=      5-min Rain = 0
KLD1 191240Z 32005KT 02/M02 A2997 RMK A01 T00201017  RH  077%=      5-min Rain = 0
KLD1 191245Z 32005KT 02/M02 A2997 RMK A01 T00201016  RH  078%=      5-min Rain = 0
KLD1 191250Z 31005KT 02/M02 A2997 RMK A01 T00151019  RH  079%=      5-min Rain = 0
KLD1 191255Z 30005KT 01/M02 A2997 RMK A01 T00111019  RH  081%=      5-min Rain = 0
KLD1 191300Z 30005KT 01/M02 A2997 RMK A01 T00101019  RH  082%=      5-min Rain = 0
KLD1 191305Z 30004KT 01/M02 A2997 RMK A01 T00121017  RH  081%=      5-min Rain = 0
KLD1 191310Z 30003KT 01/M02 A2997 RMK A01 T00121019  RH  081%=      5-min Rain = 0
KLD1 191315Z 30003KT 02/M02 A2997 RMK A01 T00151017  RH  080%=      5-min Rain = 0
KLD1 191320Z 30003KT 02/M02 A2997 RMK A01 T00181016  RH  079%=      5-min Rain = 0
KLD1 191325Z 30003KT 02/M02 A2997 RMK A01 T00221015  RH  078%=      5-min Rain = 0
KLD1 191330Z 30002KT 02/M02 A2997 RMK A01 T00221017  RH  076%=      5-min Rain = 0
KLD1 191335Z 32001KT 02/M02 A2997 RMK A01 T00191017  RH  077%=      5-min Rain = 0
KLD1 191340Z 32001KT 02/M02 A2997 RMK A01 T00181020  RH  077%=      5-min Rain = 0
KLD1 191345Z 32001KT 02/M02 A2997 RMK A01 T00161020  RH  078%=      5-min Rain = 0
KLD1 191350Z 32001KT 01/M02 A2997 RMK A01 T00141020  RH  079%=      5-min Rain = 0
KLD1 191355Z 34002KT 01/M02 A2997 RMK A01 T00131020  RH  079%=      5-min Rain = 0
KLD1 191400Z 34002KT 01/M02 A2997 RMK A01 T00131020  RH  080%=      5-min Rain = 0
KLD1 191405Z 02002KT 02/M02 A2997 RMK A01 T00181017  RH  078%=      5-min Rain = 0
KLD1 191410Z 03001KT 03/M01 A2997 RMK A01 T00261013  RH  076%=      5-min Rain = 0
KLD1 191415Z 02001KT 03/M01 A2997 RMK A01 T00321008  RH  076%=      5-min Rain = 0
KLD1 191420Z 02000KT 04/M00 A2997 RMK A01 T00391001  RH  076%=      5-min Rain = 0
KLD1 191425Z 30001KT 05/01 A2997 RMK A01 T00500006  RH  074%=      5-min Rain = 0
KLD1 191430Z 29000KT 06/01 A2997 RMK A01 T00600006  RH  069%=      5-min Rain = 0
KLD1 191435Z 29001KT 07/01 A2997 RMK A01 T00680009  RH  067%=      5-min Rain = 0
KLD1 191440Z 29002KT 08/01 A2997 RMK A01 T00760009  RH  063%=      5-min Rain = 0
KLD1 191445Z 29000KT 08/01 A2997 RMK A01 T00810007  RH  060%=      5-min Rain = 0
KLD1 191450Z 26004G10KT 09/01 A2997 RMK A01 T00900007  RH  057%=      5-min Rain = 0
KLD1 191455Z 26007G12KT 09/01 A2998 RMK A01 T00920006  RH  055%=      5-min Rain = 0
KLD1 191500Z 25006G11KT 10/01 A2998 RMK A01 T00980006  RH  053%=      5-min Rain = 0
KLD1 191505Z 27006KT 11/01 A2998 RMK A01 T01050006  RH  051%=      5-min Rain = 0
KLD1 191510Z 24003KT 11/01 A2998 RMK A01 T01080006  RH  050%=      5-min Rain = 0
KLD1 191515Z 26003KT 11/01 A2998 RMK A01 T01140007  RH  048%=      5-min Rain = 0
KLD1 191520Z 17001KT 12/01 A2998 RMK A01 T01170006  RH  047%=      5-min Rain = 0
KLD1 191525Z 15002KT 12/01 A2998 RMK A01 T01240009  RH  046%=      5-min Rain = 0
KLD1 191530Z 15002KT 13/01 A2998 RMK A01 T01310005  RH  043%=      5-min Rain = 0
KLD1 191535Z 15003KT 14/00 A2998 RMK A01 T01360003  RH  041%=      5-min Rain = 0
KLD1 191540Z 16004KT 14/00 A2998 RMK A01 T01420004  RH  039%=      5-min Rain = 0
KLD1 191545Z 16005KT 15/00 A2998 RMK A01 T01490004  RH  038%=      5-min Rain = 0
KLD1 191550Z 16006KT 16/00 A2997 RMK A01 T01560002  RH  035%=      5-min Rain = 0
KLD1 191555Z 15008KT 16/00 A2997 RMK A01 T016100-0  RH  034%=      5-min Rain = 0
KLD1 191600Z 16007KT 16/00 A2997 RMK A01 T01630002  RH  034%=      5-min Rain = 0
KLD1 191605Z 16009KT 17/00 A2997 RMK A01 T01660001  RH  033%=      5-min Rain = 0
KLD1 191610Z 17008G13KT 17/00 A2998 RMK A01 T01690002  RH  032%=      5-min Rain = 0
KLD1 191615Z 17011KT 17/M00 A2998 RMK A01 T01731001  RH  031%=      5-min Rain = 0
KLD1 191620Z 17010KT 18/00 A2998 RMK A01 T01750001  RH  031%=      5-min Rain = 0
KLD1 191625Z 17009KT 18/00 A2997 RMK A01 T01780003  RH  031%=      5-min Rain = 0
KLD1 191630Z 17009KT 18/00 A2997 RMK A01 T01790003  RH  031%=      5-min Rain = 0
KLD1 191635Z 18010KT 18/00 A2997 RMK A01 T01830001  RH  030%=      5-min Rain = 0
KLD1 191640Z 18012KT 19/M00 A2997 RMK A01 T01851004  RH  028%=      5-min Rain = 0
KLD1 191645Z 18011KT 18/M00 A2997 RMK A01 T01841002  RH  029%=      5-min Rain = 0
KLD1 191650Z 17011KT 19/00 A2997 RMK A01 T018500-0  RH  029%=      5-min Rain = 0
KLD1 191655Z 17011KT 19/00 A2997 RMK A01 T01860002  RH  029%=      5-min Rain = 0
KLD1 191700Z 18010KT 19/00 A2997 RMK A01 T01900003  RH  029%=      5-min Rain = 0
KLD1 191705Z 17011KT 19/01 A2996 RMK A01 T01880006  RH  030%=      5-min Rain = 0
KLD1 191710Z 18010KT 19/01 A2996 RMK A01 T01890007  RH  030%=      5-min Rain = 0
KLD1 191715Z 18011KT 19/01 A2996 RMK A01 T01930006  RH  029%=      5-min Rain = 0
KLD1 191720Z 18011KT 20/00 A2996 RMK A01 T01970001  RH  027%=      5-min Rain = 0
KLD1 191725Z 18014KT 20/M00 A2996 RMK A01 T01981003  RH  026%=      5-min Rain = 0
KLD1 191730Z 18012KT 20/M00 A2995 RMK A01 T01961003  RH  027%=      5-min Rain = 0
KLD1 191735Z 18011KT 20/M00 A2995 RMK A01 T01981001  RH  027%=      5-min Rain = 0
KLD1 191740Z 19013KT 20/M00 A2995 RMK A01 T02011002  RH  026%=      5-min Rain = 0
KLD1 191745Z 18013KT 20/M00 A2995 RMK A01 T02041001  RH  026%=      5-min Rain = 0
KLD1 191750Z 19012KT 21/00 A2995 RMK A01 T02070002  RH  026%=      5-min Rain = 0
KLD1 191755Z 19013KT 21/00 A2994 RMK A01 T02110001  RH  025%=      5-min Rain = 0
KLD1 191800Z 20015KT 22/M00 A2994 RMK A01 T02151002  RH  024%=      5-min Rain = 0
KLD1 191805Z 20014KT 21/M01 A2994 RMK A01 T02141005  RH  023%=      5-min Rain = 0
KLD1 191810Z 18014KT 22/M01 A2993 RMK A01 T02151005  RH  023%=      5-min Rain = 0
KLD1 191815Z 19013KT 22/M01 A2993 RMK A01 T02161008  RH  023%=      5-min Rain = 0
KLD1 191820Z 20014G19KT 22/M01 A2993 RMK A01 T02191009  RH  022%=      5-min Rain = 0
KLD1 191825Z 19015KT 23/M01 A2992 RMK A01 T02251010  RH  021%=      5-min Rain = 0
KLD1 191830Z 18015G21KT 23/M01 A2992 RMK A01 T02271014  RH  020%=      5-min Rain = 0
KLD1 191835Z 19017KT 23/M01 A2991 RMK A01 T02281014  RH  020%=      5-min Rain = 0
KLD1 191840Z 18016G21KT 23/M01 A2991 RMK A01 T02291014  RH  020%=      5-min Rain = 0
KLD1 191845Z 19015G20KT 23/M01 A2991 RMK A01 T02341013  RH  020%=      5-min Rain = 0
KLD1 191850Z 20017KT 24/M02 A2991 RMK A01 T02361017  RH  019%=      5-min Rain = 0
KLD1 191855Z 19015G21KT 24/M02 A299 RMK A01 T02361016  RH  019%=      5-min Rain = 0
KLD1 191900Z 19014G19KT 24/M02 A299 RMK A01 T02361017  RH  019%=      5-min Rain = 0
KLD1 191905Z 19016G21KT 23/M02 A299 RMK A01 T02321018  RH  019%=      5-min Rain = 0
KLD1 191910Z 18015KT 24/M02 A299 RMK A01 T02361016  RH  019%=      5-min Rain = 0
KLD1 191915Z 19015KT 24/M01 A2989 RMK A01 T02421014  RH  018%=      5-min Rain = 0
KLD1 191920Z 19016G22KT 24/M02 A2989 RMK A01 T02411015  RH  018%=      5-min Rain = 0
KLD1 191925Z 19014G19KT 24/M01 A2989 RMK A01 T02431014  RH  018%=      5-min Rain = 0
KLD1 191930Z 21015KT 24/M02 A2989 RMK A01 T02441018  RH  018%=      5-min Rain = 0
KLD1 191935Z 19014G19KT 24/M02 A2988 RMK A01 T02441015  RH  018%=      5-min Rain = 0
KLD1 191940Z 19014G19KT 24/M02 A2988 RMK A01 T02431016  RH  018%=      5-min Rain = 0
KLD1 191945Z 20014G19KT 25/M02 A2987 RMK A01 T02461017  RH  018%=      5-min Rain = 0
KLD1 191950Z 20014G19KT 25/M02 A2987 RMK A01 T02471018  RH  017%=      5-min Rain = 0
KLD1 191955Z 20014G20KT 25/M02 A2987 RMK A01 T02501015  RH  017%=      5-min Rain = 0
KLD1 192000Z 20016G21KT 25/M02 A2986 RMK A01 T02501018  RH  017%=      5-min Rain = 0
KLD1 192005Z 19016G22KT 25/M02 A2986 RMK A01 T02471018  RH  017%=      5-min Rain = 0
KLD1 192010Z 20016KT 25/M02 A2986 RMK A01 T02461018  RH  017%=      5-min Rain = 0
KLD1 192015Z 19015KT 24/M02 A2985 RMK A01 T02411018  RH  018%=      5-min Rain = 0
KLD1 192020Z 20015G21KT 24/M02 A2985 RMK A01 T02411019  RH  018%=      5-min Rain = 0
KLD1 192025Z 21014KT 24/M02 A2985 RMK A01 T02401020  RH  018%=      5-min Rain = 0
KLD1 192030Z 20012G17KT 24/M02 A2985 RMK A01 T02441018  RH  018%=      5-min Rain = 0
KLD1 192035Z 19012G17KT 25/M02 A2984 RMK A01 T02491018  RH  017%=      5-min Rain = 0
KLD1 192040Z 20014KT 25/M02 A2984 RMK A01 T02471024  RH  017%=      5-min Rain = 0
KLD1 192045Z 20013G18KT 25/M02 A2984 RMK A01 T02511024  RH  016%=      5-min Rain = 0
KLD1 192050Z 19013G19KT 25/M02 A2984 RMK A01 T02541024  RH  016%=      5-min Rain = 0
KLD1 192055Z 20016G21KT 25/M03 A2983 RMK A01 T02531027  RH  016%=      5-min Rain = 0
KLD1 192100Z 20013G18KT 25/M03 A2983 RMK A01 T02491026  RH  016%=      5-min Rain = 0
KLD1 192105Z 20012G17KT 25/M03 A2983 RMK A01 T02491026  RH  016%=      5-min Rain = 0
KLD1 192110Z 20012KT 25/M03 A2983 RMK A01 T02471028  RH  016%=      5-min Rain = 0
KLD1 192115Z 19015KT 25/M03 A2983 RMK A01 T02531027  RH  016%=      5-min Rain = 0
KLD1 192120Z 18015G20KT 25/M03 A2983 RMK A01 T02541028  RH  015%=      5-min Rain = 0
KLD1 192125Z 19015KT 25/M03 A2983 RMK A01 T02541028  RH  015%=      5-min Rain = 0
KLD1 192130Z 19015KT 25/M03 A2983 RMK A01 T02541027  RH  016%=      5-min Rain = 0
KLD1 192135Z 19014G19KT 25/M03 A2983 RMK A01 T02521028  RH  016%=      5-min Rain = 0
KLD1 192140Z 19012G18KT 25/M03 A2983 RMK A01 T02471028  RH  016%=      5-min Rain = 0
KLD1 192145Z 20015KT 25/M03 A2983 RMK A01 T02511028  RH  016%=      5-min Rain = 0
KLD1 192150Z 19014KT 25/M03 A2983 RMK A01 T02521028  RH  016%=      5-min Rain = 0
KLD1 192155Z 19014KT 25/M03 A2983 RMK A01 T02501028  RH  016%=      5-min Rain = 0
KLD1 192200Z 20012KT 25/M03 A2983 RMK A01 T02511027  RH  016%=      5-min Rain = 0
KLD1 192205Z 19014KT 25/M03 A2982 RMK A01 T02491028  RH  016%=      5-min Rain = 0
KLD1 192210Z 19012KT 25/M03 A2983 RMK A01 T02481027  RH  016%=      5-min Rain = 0
KLD1 192215Z 19011KT 25/M03 A2982 RMK A01 T02491027  RH  016%=      5-min Rain = 0
KLD1 192220Z 20012G17KT 25/M03 A2982 RMK A01 T02491026  RH  016%=      5-min Rain = 0
KLD1 192225Z 19013G18KT 25/M03 A2982 RMK A01 T02481027  RH  016%=      5-min Rain = 0
KLD1 192230Z 19013KT 25/M03 A2982 RMK A01 T02461026  RH  016%=      5-min Rain = 0
KLD1 192235Z 19016G21KT 25/M03 A2982 RMK A01 T02461025  RH  017%=      5-min Rain = 0
KLD1 192240Z 18016KT 24/M02 A2982 RMK A01 T02411023  RH  017%=      5-min Rain = 0
KLD1 192245Z 19015G20KT 24/M02 A2982 RMK A01 T02381023  RH  018%=      5-min Rain = 0
KLD1 192250Z 19015G20KT 24/M02 A2982 RMK A01 T02361024  RH  018%=      5-min Rain = 0
KLD1 192255Z 19014G19KT 23/M02 A2982 RMK A01 T02331024  RH  018%=      5-min Rain = 0
KLD1 192300Z 19013KT 23/M03 A2982 RMK A01 T02281025  RH  018%=      5-min Rain = 0
KLD1 192305Z 18010KT 22/M02 A2982 RMK A01 T02231024  RH  019%=      5-min Rain = 0
KLD1 192310Z 18009KT 22/M02 A2983 RMK A01 T02211023  RH  020%=      5-min Rain = 0
KLD1 192315Z 18011KT 22/M02 A2982 RMK A01 T02181022  RH  020%=      5-min Rain = 0
KLD1 192320Z 18010KT 22/M02 A2983 RMK A01 T02151023  RH  020%=      5-min Rain = 0
KLD1 192325Z 18008KT 21/M02 A2983 RMK A01 T02091023  RH  021%=      5-min Rain = 0
KLD1 192330Z 18008KT 20/M02 A2983 RMK A01 T02041023  RH  022%=      5-min Rain = 0
KLD1 192335Z 17007KT 20/M02 A2983 RMK A01 T01981023  RH  022%=      5-min Rain = 0
KLD1 192340Z 17007KT 19/M02 A2982 RMK A01 T01931022  RH  023%=      5-min Rain = 0
KLD1 192345Z 17007KT 19/M02 A2982 RMK A01 T01891023  RH  024%=      5-min Rain = 0
KLD1 192350Z 18007KT 18/M02 A2983 RMK A01 T01831023  RH  025%=      5-min Rain = 0
KLD1 192355Z 18008KT 18/M02 A2983 RMK A01 T01781023  RH  025%=      5-min Rain = 0
KLD1 200000Z 18008KT 18/M02 A2983 RMK A01 T01771023  RH  026%=      5-min Rain = 0
KLD1 200005Z 18009KT 18/M02 A2983 RMK A01 T01761023  RH  026%=      5-min Rain = 0
KLD1 200010Z 18009KT 18/M02 A2983 RMK A01 T01751022  RH  026%=      5-min Rain = 0
KLD1 200015Z 18009KT 17/M02 A2983 RMK A01 T01731022  RH  027%=      5-min Rain = 0
KLD1 200020Z 18008KT 17/M02 A2983 RMK A01 T01711021  RH  027%=      5-min Rain = 0
KLD1 200025Z 18008KT 17/M02 A2983 RMK A01 T01701021  RH  027%=      5-min Rain = 0
KLD1 200030Z 18008KT 17/M02 A2983 RMK A01 T01671021  RH  028%=      5-min Rain = 0
KLD1 200035Z 18007KT 16/M02 A2983 RMK A01 T01621021  RH  029%=      5-min Rain = 0
KLD1 200040Z 17006KT 16/M02 A2982 RMK A01 T01571021  RH  030%=      5-min Rain = 0
KLD1 200045Z 17006KT 15/M02 A2982 RMK A01 T01521021  RH  031%=      5-min Rain = 0
KLD1 200050Z 17007KT 15/M02 A2982 RMK A01 T01511020  RH  031%=      5-min Rain = 0
KLD1 200055Z 18008KT 15/M02 A2983 RMK A01 T01541019  RH  031%=      5-min Rain = 0
KLD1 200100Z 19008KT 16/M02 A2983 RMK A01 T01551018  RH  031%=      5-min Rain = 0
KLD1 200105Z 18008KT 16/M02 A2983 RMK A01 T01571017  RH  030%=      5-min Rain = 0
KLD1 200110Z 19008KT 16/M02 A2983 RMK A01 T01581017  RH  030%=      5-min Rain = 0
KLD1 200115Z 19008KT 16/M02 A2983 RMK A01 T01571017  RH  031%=      5-min Rain = 0
KLD1 200120Z 19008KT 16/M02 A2983 RMK A01 T01561017  RH  031%=      5-min Rain = 0
KLD1 200125Z 19008KT 16/M02 A2983 RMK A01 T01561017  RH  031%=      5-min Rain = 0
KLD1 200130Z 19008KT 16/M02 A2984 RMK A01 T01551016  RH  031%=      5-min Rain = 0
KLD1 200135Z 18008KT 15/M02 A2984 RMK A01 T01541016  RH  031%=      5-min Rain = 0
KLD1 200140Z 18008KT 15/M02 A2984 RMK A01 T01511016  RH  032%=      5-min Rain = 0
KLD1 200145Z 18008KT 15/M02 A2984 RMK A01 T01481015  RH  033%=      5-min Rain = 0
KLD1 200150Z 19008KT 15/M01 A2984 RMK A01 T01461014  RH  033%=      5-min Rain = 0
KLD1 200155Z 18008KT 15/M01 A2984 RMK A01 T01471014  RH  034%=      5-min Rain = 0
KLD1 200200Z 18008KT 15/M01 A2984 RMK A01 T01461014  RH  033%=      5-min Rain = 0
KLD1 200205Z 18008KT 15/M01 A2984 RMK A01 T01471014  RH  033%=      5-min Rain = 0
KLD1 200210Z 18008KT 15/M01 A2984 RMK A01 T01461013  RH  034%=      5-min Rain = 0
KLD1 200215Z 18008KT 15/M01 A2984 RMK A01 T01461013  RH  034%=      5-min Rain = 0
KLD1 200220Z 18008KT 15/M01 A2984 RMK A01 T01461012  RH  034%=      5-min Rain = 0
KLD1 200225Z 17007KT 15/M01 A2984 RMK A01 T01461012  RH  034%=      5-min Rain = 0
KLD1 200230Z 18008KT 15/M01 A2983 RMK A01 T01461012  RH  034%=      5-min Rain = 0
KLD1 200235Z 18009KT 15/M01 A2983 RMK A01 T01491012  RH  034%=      5-min Rain = 0
KLD1 200240Z 18010KT 15/M01 A2983 RMK A01 T01511012  RH  033%=      5-min Rain = 0
KLD1 200245Z 18010KT 15/M01 A2983 RMK A01 T01521012  RH  033%=      5-min Rain = 0
KLD1 200250Z 18010KT 15/M01 A2983 RMK A01 T01521012  RH  033%=      5-min Rain = 0
KLD1 200255Z 18010KT 15/M01 A2983 RMK A01 T01511012  RH  033%=      5-min Rain = 0
KLD1 200300Z 18011KT 15/M01 A2983 RMK A01 T01511012  RH  033%=      5-min Rain = 0
KLD1 200305Z 18010KT 15/M01 A2983 RMK A01 T01501012  RH  033%=      5-min Rain = 0
KLD1 200310Z 18010KT 15/M01 A2983 RMK A01 T01491011  RH  033%=      5-min Rain = 0
KLD1 200315Z 18010KT 15/M01 A2983 RMK A01 T01481011  RH  034%=      5-min Rain = 0
KLD1 200320Z 18009KT 15/M01 A2984 RMK A01 T01481011  RH  034%=      5-min Rain = 0
KLD1 200325Z 18009KT 15/M01 A2984 RMK A01 T01451011  RH  035%=      5-min Rain = 0
KLD1 200330Z 18009KT 14/M01 A2984 RMK A01 T01411010  RH  036%=      5-min Rain = 0
KLD1 200335Z 18009KT 14/M01 A2984 RMK A01 T01391010  RH  036%=      5-min Rain = 0
KLD1 200340Z 18009KT 14/M01 A2984 RMK A01 T01371009  RH  037%=      5-min Rain = 0
KLD1 200345Z 18009KT 14/M01 A2984 RMK A01 T01351008  RH  037%=      5-min Rain = 0
KLD1 200350Z 18008KT 13/M01 A2984 RMK A01 T01331008  RH  038%=      5-min Rain = 0
KLD1 200355Z 18009KT 13/M01 A2984 RMK A01 T01301007  RH  039%=      5-min Rain = 0
KLD1 200400Z 18009KT 13/M01 A2984 RMK A01 T01281007  RH  040%=      5-min Rain = 0
KLD1 200405Z 18009KT 13/M01 A2984 RMK A01 T01271006  RH  040%=      5-min Rain = 0
KLD1 200410Z 18010KT 13/M01 A2984 RMK A01 T01281005  RH  040%=      5-min Rain = 0
KLD1 200415Z 18010KT 13/M00 A2983 RMK A01 T01311004  RH  040%=      5-min Rain = 0
KLD1 200420Z 18010KT 13/M00 A2984 RMK A01 T01331003  RH  040%=      5-min Rain = 0
KLD1 200425Z 18009KT 13/M00 A2984 RMK A01 T01331002  RH  040%=      5-min Rain = 0
KLD1 200430Z 18010KT 13/M00 A2984 RMK A01 T01311002  RH  040%=      5-min Rain = 0
KLD1 200435Z 18010KT 13/M00 A2984 RMK A01 T01321001  RH  040%=      5-min Rain = 0
KLD1 200440Z 18011KT 13/00 A2984 RMK A01 T013200-0  RH  041%=      5-min Rain = 0
KLD1 200445Z 18010KT 13/00 A2984 RMK A01 T01320001  RH  041%=      5-min Rain = 0
KLD1 200450Z 18009KT 13/00 A2984 RMK A01 T01300002  RH  042%=      5-min Rain = 0
KLD1 200455Z 19009KT 13/00 A2984 RMK A01 T01300003  RH  042%=      5-min Rain = 0
KLD1 200500Z 19009KT 13/00 A2985 RMK A01 T01300003  RH  042%=      5-min Rain = 0
KLD1 200505Z 19010KT 13/00 A2985 RMK A01 T01290004  RH  043%=      5-min Rain = 0
KLD1 200510Z 19009KT 13/01 A2985 RMK A01 T01280005  RH  043%=      5-min Rain = 0
KLD1 200515Z 18009KT 13/01 A2985 RMK A01 T01280006  RH  044%=      5-min Rain = 0
KLD1 200520Z 18009KT 13/01 A2984 RMK A01 T01290008  RH  044%=      5-min Rain = 0
KLD1 200525Z 18009KT 13/01 A2984 RMK A01 T01290009  RH  045%=      5-min Rain = 0
KLD1 200530Z 18010KT 13/01 A2984 RMK A01 T01290012  RH  045%=      5-min Rain = 0
KLD1 200535Z 18010KT 13/02 A2984 RMK A01 T01320017  RH  046%=      5-min Rain = 0
KLD1 200540Z 18010G15KT 13/02 A2984 RMK A01 T01330020  RH  047%=      5-min Rain = 0
KLD1 200545Z 18010KT 13/02 A2984 RMK A01 T01330022  RH  047%=      5-min Rain = 0
KLD1 200550Z 18010KT 13/02 A2984 RMK A01 T01330023  RH  048%=      5-min Rain = 0
KLD1 200555Z 18010KT 13/02 A2984 RMK A01 T01330024  RH  048%=      5-min Rain = 0

Page generated in 0.0156 seconds.